Airfield :
LOGIN :

Register | Disclaimer

   EN    FR    IT 

 










Legend :    VFR   Marginal VFR   IFR   Intensive IFR   Very Intensive IFR
Visi :
Ceiling :
>= 8 km
>= 3000ft
5 to 8 km
1000 to 3000 ft
1500m to 5 km
500 to 1000 ft
800 to 1500m
200 to 500 ft
< 800m
< 200 ft
Symbols :   Thunderstorms  Fog  Heavy snow  Heavy precipitations  Wind > 20 kt
SIGMETs :     Misc.  Thunderstorms  Icing  Turbulence  Mountain Waves  Volcanic Ashes






- Airport Elevation : 297 ft
- IATA code : UIP


LFRQ - Quimper Pluguffan

CURRENT METAR :
  • 180600Z AUTO 36003KT 9999 OVC019/// ///TCU 16/16 Q1011 TEMPO 1200 BR BKN002

EXPIRED METARs :
  • 180530Z AUTO 01003KT 9999 BKN017 BKN022 OVC028 16/15 Q1011 TEMPO 1200 BR BKN005 BKN015TCU
  • 180500Z AUTO 35003KT 9999 OVC017 15/15 Q1011
  • 180430Z AUTO 36003KT 8000 BKN011 BKN018 OVC024 15/15 Q1011
  • 180400Z AUTO 03003KT 9999 OVC014 16/15 Q1011
  • 180330Z AUTO 04003KT 5000 -RA BR OVC011 16/15 Q1011
  • 180300Z AUTO 01002KT 9999 -RA BKN005 OVC010 16/15 Q1011
  • 180230Z AUTO 01003KT 8000 -RA OVC003 16/15 Q1011
  • 180200Z AUTO 00000KT 6000 -RA OVC005/// ///TCU 16/16 Q1011
  • 180130Z AUTO 00000KT 9000 -RADZ OVC005/// ///TCU 16/16 Q1011

TAF TAF LFRQ
Valid from the 18 at 06:00 until the 19 at 06:00 UTC


180500Z 1806/1906 VRB05KT 9999 BKN020
TEMPO 1806/1810 3000 SHRA BKN005 BKN015TCU
PROB40
TEMPO 1806/1810 1200 BR BKN002
PROB40
TEMPO 1810/1818 3000 SHRA BKN010 BKN020CB
BECMG 1814/1816 02010KT
PROB40
TEMPO 1902/1906 BKN012



MET'MAP, your aeronautical weather chart ! - Copyright ORBIFLY December 2007 - Disclaimer

ORBIFLY MET'MAP TEAM :

Programming & Development : Alexandra Zaïnal
Original concept : Baudouin d'Aumeries
Technical & hardware support : Manuel Goepfert
Assistance : Marc-Olivier Méhu




SOURCES & CREDITS :

   NOAA